Time;durP1;ratioP1;P1;durP2;ratioP2;P2;SDS_P1;SDS_P2;PMS_P1;PMS_P2;Temp;Humidity;BMP_temperature;BMP_pressure;BME280_temperature;BME280_humidity;BME280_pressure;Samples;Min_cycle;Max_cycle;Signal;HPM_P1;HPM_P2
2024/01/30 00:00:39;;;;;;;52.33;47.42;;;5.50;80.50;;;;;;12082612;29;20056;-74
2024/01/30 00:06:41;;;;;;;39.13;31.55;;;5.20;80.90;;;;;;12084784;29;20460;-74
2024/01/30 00:12:42;;;;;;;43.55;39.42;;;5.20;80.70;;;;;;12083130;29;20049;-74
2024/01/30 00:18:44;;;;;;;44.65;40.65;;;5.10;81.00;;;;;;12082960;29;20025;-74
2024/01/30 00:24:45;;;;;;;44.05;35.17;;;5.20;80.80;;;;;;12082707;29;20064;-74
2024/01/30 00:30:47;;;;;;;48.30;42.58;;;5.20;80.60;;;;;;12082400;29;20034;-74
2024/01/30 00:36:48;;;;;;;41.38;37.05;;;5.20;80.30;;;;;;12082300;29;20033;-74
2024/01/30 00:42:50;;;;;;;37.70;34.00;;;4.90;80.80;;;;;;12081866;29;20352;-73
2024/01/30 00:48:51;;;;;;;45.83;41.60;;;4.80;81.10;;;;;;12081829;29;20041;-74
2024/01/30 00:54:53;;;;;;;63.50;57.75;;;4.70;81.00;;;;;;12081968;29;20042;-73
2024/01/30 01:00:54;;;;;;;38.63;30.58;;;4.80;80.90;;;;;;12080928;29;20349;-74
2024/01/30 01:06:56;;;;;;;60.83;55.30;;;4.80;80.80;;;;;;12081573;29;20044;-73
2024/01/30 01:12:57;;;;;;;36.53;31.27;;;4.70;80.70;;;;;;12080601;29;20056;-73
2024/01/30 01:19:00;;;;;;;45.58;41.22;;;4.80;80.60;;;;;;12081039;29;20025;-73
2024/01/30 01:25:01;;;;;;;40.97;37.13;;;4.70;80.50;;;;;;12078905;29;20041;-73
2024/01/30 01:31:05;;;;;;;32.28;28.30;;;4.60;80.20;;;;;;12079808;29;20041;-73
2024/01/30 01:37:07;;;;;;;31.45;28.52;;;4.10;80.80;;;;;;12080096;29;20053;-74
2024/01/30 01:43:09;;;;;;;31.25;28.27;;;3.80;81.50;;;;;;12079181;29;20070;-73
2024/01/30 01:49:11;;;;;;;36.08;33.03;;;3.70;81.80;;;;;;12078905;29;20468;-73
2024/01/30 01:55:13;;;;;;;31.60;28.70;;;3.60;82.10;;;;;;12078596;29;20041;-73
2024/01/30 02:01:18;;;;;;;24.00;21.70;;;3.50;82.20;;;;;;12079054;29;20330;-73
2024/01/30 02:07:20;;;;;;;27.95;25.50;;;3.30;82.30;;;;;;12078193;29;20033;-73
2024/01/30 02:13:22;;;;;;;18.50;16.60;;;3.30;82.30;;;;;;12077242;29;20037;-73
2024/01/30 02:19:23;;;;;;;19.38;16.08;;;3.20;82.40;;;;;;12077741;29;20036;-73
2024/01/30 02:25:35;;;;;;;18.05;16.05;;;3.10;82.50;;;;;;12078327;29;20348;-73
2024/01/30 02:31:37;;;;;;;16.98;15.13;;;3.00;82.70;;;;;;12077448;29;20048;-73
2024/01/30 02:37:39;;;;;;;22.20;18.13;;;3.10;82.80;;;;;;12077771;29;20041;-73
2024/01/30 02:43:40;;;;;;;12.57;11.10;;;3.00;82.60;;;;;;12076947;29;20033;-74
2024/01/30 02:49:42;;;;;;;19.30;16.63;;;2.80;82.60;;;;;;12104567;24;20053;-73
2024/01/30 02:55:43;;;;;;;15.52;13.25;;;2.60;82.80;;;;;;12168853;29;20048;-73
2024/01/30 03:01:46;;;;;;;17.40;14.77;;;;;;;;;;12152288;29;20363;-73
2024/01/30 03:07:48;;;;;;;15.45;13.75;;;2.50;82.70;;;;;;12168688;29;20049;-74
2024/01/30 03:13:49;;;;;;;16.38;14.57;;;2.50;83.10;;;;;;12151839;29;20032;-73
2024/01/30 03:19:51;;;;;;;17.20;15.43;;;2.50;83.00;;;;;;12168384;29;20029;-73
2024/01/30 03:25:53;;;;;;;23.65;21.13;;;2.50;82.90;;;;;;12171673;29;20320;-73
2024/01/30 03:31:54;;;;;;;19.48;17.48;;;2.60;83.30;;;;;;12177674;29;20040;-73
2024/01/30 03:37:56;;;;;;;21.98;19.70;;;2.70;82.90;;;;;;12177354;29;20062;-73
2024/01/30 03:43:58;;;;;;;17.88;16.08;;;2.60;82.90;;;;;;12160568;29;20048;-73
2024/01/30 03:49:59;;;;;;;15.98;13.45;;;3.10;83.20;;;;;;12176816;29;20467;-73
2024/01/30 03:56:01;;;;;;;21.33;15.95;;;3.30;82.40;;;;;;12176496;29;20028;-74
2024/01/30 04:02:03;;;;;;;17.23;13.48;;;3.20;82.30;;;;;;12176292;29;20033;-73
2024/01/30 04:08:05;;;;;;;15.07;13.57;;;3.00;82.70;;;;;;12159506;29;20039;-73
2024/01/30 04:14:06;;;;;;;18.00;15.05;;;2.90;83.00;;;;;;12159054;29;20036;-74
2024/01/30 04:20:12;;;;;;;15.73;13.50;;;3.00;83.10;;;;;;12159587;29;20032;-73
2024/01/30 04:26:13;;;;;;;21.63;18.83;;;3.30;82.70;;;;;;12175333;29;20032;-73
2024/01/30 04:32:15;;;;;;;22.05;19.08;;;3.20;82.60;;;;;;12174288;29;20467;-73
2024/01/30 04:38:17;;;;;;;22.05;19.58;;;3.50;82.70;;;;;;12157375;29;20040;-73
2024/01/30 04:44:19;;;;;;;16.40;13.75;;;3.50;81.80;;;;;;12175739;29;20447;-73
2024/01/30 04:50:20;;;;;;;18.73;15.90;;;3.20;82.10;;;;;;12174637;29;20040;-73
2024/01/30 04:56:22;;;;;;;18.70;15.32;;;2.90;82.50;;;;;;12173963;29;20043;-73
2024/01/30 05:02:24;;;;;;;16.38;14.00;;;2.70;82.70;;;;;;12173763;29;20028;-73
2024/01/30 05:08:25;;;;;;;17.23;15.30;;;2.60;82.90;;;;;;12173365;29;20045;-73
2024/01/30 05:14:27;;;;;;;16.92;15.13;;;2.50;83.20;;;;;;12156945;29;20036;-74
2024/01/30 05:20:28;;;;;;;18.02;15.35;;;2.70;83.60;;;;;;12172963;29;20075;-73
2024/01/30 05:26:30;;;;;;;18.95;14.40;;;2.80;82.80;;;;;;12172562;29;20056;-73
2024/01/30 05:32:31;;;;;;;17.83;15.75;;;2.90;83.10;;;;;;12172275;29;20036;-73
2024/01/30 05:38:33;;;;;;;21.05;17.85;;;2.80;82.70;;;;;;12172221;29;20040;-74
2024/01/30 05:44:35;;;;;;;18.77;16.77;;;2.90;82.80;;;;;;12140053;29;20037;-74
2024/01/30 05:50:37;;;;;;;16.73;14.98;;;;;;;;;;12170697;29;20040;-73
2024/01/30 05:56:38;;;;;;;16.13;14.57;;;3.30;82.60;;;;;;12154434;29;20333;-73
2024/01/30 06:02:59;;;;;;;15.65;13.85;;;3.10;82.00;;;;;;12154373;29;20032;-74
2024/01/30 06:09:01;;;;;;;20.55;15.15;;;2.80;82.60;;;;;;12170629;29;20033;-73
2024/01/30 06:15:03;;;;;;;21.00;17.42;;;3.20;83.00;;;;;;12153590;29;20037;-74
2024/01/30 06:21:05;;;;;;;24.45;20.65;;;3.60;82.00;;;;;;12170080;29;20024;-73
2024/01/30 06:27:06;;;;;;;19.73;17.15;;;3.60;81.90;;;;;;12153932;29;20036;-73
2024/01/30 06:33:08;;;;;;;17.60;14.30;;;3.40;81.50;;;;;;12170272;29;20044;-73
2024/01/30 06:39:10;;;;;;;19.63;16.38;;;3.20;82.00;;;;;;12170119;29;20347;-73
2024/01/30 06:45:11;;;;;;;19.52;16.08;;;3.20;82.30;;;;;;12153163;29;20032;-73
2024/01/30 06:51:13;;;;;;;21.05;15.70;;;3.10;82.10;;;;;;12169071;29;20040;-74
2024/01/30 06:57:15;;;;;;;21.63;15.38;;;3.10;82.20;;;;;;12168893;29;20036;-73
2024/01/30 07:03:16;;;;;;;17.77;14.55;;;3.10;82.50;;;;;;12168458;29;20036;-73
2024/01/30 07:09:18;;;;;;;18.13;15.35;;;3.20;82.00;;;;;;12169739;29;20548;-74
2024/01/30 07:15:20;;;;;;;20.98;17.48;;;2.90;82.20;;;;;;12168347;29;20056;-73
2024/01/30 07:21:27;;;;;;;24.33;20.02;;;3.30;82.70;;;;;;12151649;29;20040;-73
2024/01/30 07:27:29;;;;;;;24.50;18.52;;;3.40;82.40;;;;;;12152096;29;20037;-75
2024/01/30 07:33:30;;;;;;;23.10;18.40;;;3.70;81.60;;;;;;12199273;29;20448;-75
2024/01/30 07:39:32;;;;;;;18.77;16.73;;;3.10;81.20;;;;;;12200304;29;20039;-75
2024/01/30 07:45:33;;;;;;;18.27;15.57;;;2.70;81.80;;;;;;12214814;29;20028;-75
2024/01/30 07:51:35;;;;;;;16.85;14.02;;;2.50;82.40;;;;;;12214986;29;20048;-75
2024/01/30 07:57:39;;;;;;;18.02;15.95;;;2.40;83.00;;;;;;12198777;29;20040;-76
2024/01/30 08:03:41;;;;;;;15.85;13.68;;;2.70;82.80;;;;;;12183371;29;20044;-76
2024/01/30 08:09:44;;;;;;;23.70;19.20;;;2.70;83.00;;;;;;12214511;29;20451;-76
2024/01/30 08:15:45;;;;;;;21.92;17.35;;;2.70;83.10;;;;;;12204707;29;20035;-76
2024/01/30 08:21:47;;;;;;;24.23;18.30;;;3.00;82.90;;;;;;12222419;29;20043;-76
2024/01/30 08:27:50;;;;;;;24.83;16.48;;;3.10;83.30;;;;;;12222210;29;20027;-76
2024/01/30 08:33:52;;;;;;;21.17;16.70;;;3.20;81.70;;;;;;12220773;29;20036;-76
2024/01/30 08:39:54;;;;;;;24.27;18.98;;;3.20;83.20;;;;;;12221753;29;20028;-76
2024/01/30 08:45:58;;;;;;;25.60;22.80;;;3.50;83.60;;;;;;12221425;29;20347;-74
2024/01/30 08:52:00;;;;;;;20.48;18.50;;;3.70;83.30;;;;;;12221372;29;20036;-74
2024/01/30 08:58:03;;;;;;;22.60;18.85;;;3.70;83.20;;;;;;12220949;29;20043;-74
2024/01/30 09:04:05;;;;;;;22.95;20.67;;;3.50;83.10;;;;;;12221523;29;20435;-74
2024/01/30 09:10:07;;;;;;;33.22;30.20;;;3.70;84.20;;;;;;12220326;29;20036;-74
2024/01/30 09:16:08;;;;;;;36.30;33.67;;;4.00;83.30;;;;;;12219884;29;20039;-73
2024/01/30 09:22:10;;;;;;;46.72;43.47;;;4.30;83.90;;;;;;12220247;29;20020;-74
2024/01/30 09:28:12;;;;;;;34.75;32.17;;;4.20;83.50;;;;;;12219565;29;20036;-73
2024/01/30 09:34:34;;;;;;;33.28;29.75;;;4.00;83.80;;;;;;12187468;29;20055;-73
2024/01/30 09:40:37;;;;;;;46.00;42.67;;;3.90;84.00;;;;;;12217697;29;20020;-74
2024/01/30 09:46:39;;;;;;;35.97;32.92;;;4.00;84.50;;;;;;12218889;29;20032;-73
2024/01/30 09:52:44;;;;;;;44.85;41.25;;;4.20;83.80;;;;;;12218236;29;20093;-73
2024/01/30 09:58:46;;;;;;;31.52;27.80;;;4.20;84.30;;;;;;12217219;29;20035;-73
2024/01/30 10:04:49;;;;;;;40.38;35.92;;;4.50;84.50;;;;;;12201059;29;20040;-73
2024/01/30 10:10:51;;;;;;;47.20;43.72;;;4.50;84.20;;;;;;12219748;29;20032;-73
2024/01/30 10:16:53;;;;;;;27.98;25.35;;;4.40;84.00;;;;;;12217233;29;20028;-74
2024/01/30 10:22:54;;;;;;;46.15;42.47;;;4.50;84.30;;;;;;12184748;29;20028;-73
2024/01/30 10:28:56;;;;;;;32.65;29.98;;;4.80;84.80;;;;;;12217518;29;20028;-73
2024/01/30 10:34:57;;;;;;;46.85;42.72;;;5.30;84.60;;;;;;12216805;29;20040;-73
2024/01/30 10:41:13;;;;;;;36.90;33.20;;;5.50;83.70;;;;;;12170163;29;20025;-74
2024/01/30 10:47:24;;;;;;;64.90;59.10;;;5.40;83.40;;;;;;12121806;29;20459;-74
2024/01/30 10:53:27;;;;;;;60.53;55.72;;;5.60;84.10;;;;;;12128095;24;20045;-75
2024/01/30 10:59:30;;;;;;;46.05;42.33;;;5.80;83.90;;;;;;12121294;29;20029;-75
2024/01/30 11:05:33;;;;;;;57.13;52.60;;;6.00;83.90;;;;;;12122412;29;20044;-74
2024/01/30 11:12:01;;;;;;;32.55;29.67;;;6.20;83.80;;;;;;12106201;29;20029;-74
2024/01/30 11:18:03;;;;;;;60.55;56.08;;;6.40;83.80;;;;;;12120919;29;20029;-74
2024/01/30 11:24:06;;;;;;;40.35;37.25;;;6.60;83.40;;;;;;12121945;29;20029;-74
2024/01/30 11:30:08;;;;;;;37.40;34.72;;;6.80;83.10;;;;;;12105332;29;20044;-74
2024/01/30 11:36:14;;;;;;;59.78;56.28;;;7.20;82.80;;;;;;12122282;29;20041;-74
2024/01/30 11:42:17;;;;;;;71.70;67.53;;;7.30;82.10;;;;;;12090487;29;20360;-75
2024/01/30 11:48:19;;;;;;;96.10;91.35;;;7.60;82.30;;;;;;12124762;29;20044;-74
2024/01/30 11:54:21;;;;;;;117.05;111.50;;;8.00;82.50;;;;;;12113929;29;20048;-75
2024/01/30 12:00:23;;;;;;;112.72;107.43;;;8.20;82.10;;;;;;12113771;29;20048;-75
2024/01/30 12:06:24;;;;;;;132.07;125.90;;;8.40;82.50;;;;;;12129801;29;20044;-75
2024/01/30 12:12:28;;;;;;;102.53;97.57;;;8.70;82.20;;;;;;12112933;29;20036;-75
2024/01/30 12:18:30;;;;;;;100.97;96.15;;;8.80;81.50;;;;;;12112720;29;20033;-75
2024/01/30 12:24:32;;;;;;;91.13;86.32;;;8.90;81.90;;;;;;12113013;29;20033;-75
2024/01/30 12:30:35;;;;;;;107.32;102.60;;;9.00;81.70;;;;;;12128628;29;20037;-73
2024/01/30 12:36:39;;;;;;;91.28;86.88;;;9.10;81.70;;;;;;12128519;29;20033;-74
2024/01/30 12:42:46;;;;;;;101.20;96.45;;;9.10;81.90;;;;;;12128114;29;20036;-74
2024/01/30 12:48:48;;;;;;;108.13;103.05;;;9.20;81.40;;;;;;12127897;29;20044;-74
2024/01/30 12:54:50;;;;;;;91.70;86.65;;;9.20;81.90;;;;;;12111178;29;20041;-73
2024/01/30 13:01:01;;;;;;;82.15;77.53;;;9.40;81.50;;;;;;12126721;29;20029;-73
2024/01/30 13:07:18;;;;;;;124.35;118.18;;;9.40;81.40;;;;;;12106657;29;20408;-74
2024/01/30 13:13:21;;;;;;;86.35;81.90;;;9.50;81.90;;;;;;12121119;29;20073;-74
2024/01/30 13:19:49;;;;;;;104.30;99.00;;;9.60;81.70;;;;;;12107277;29;20475;-74
2024/01/30 13:26:10;;;;;;;107.43;102.38;;;9.70;81.10;;;;;;12125869;29;20040;-74
2024/01/30 13:32:12;;;;;;;98.78;94.20;;;9.90;81.10;;;;;;12122861;29;20029;-74
2024/01/30 13:38:15;;;;;;;70.65;66.70;;;9.90;80.40;;;;;;12121990;29;20025;-74
2024/01/30 13:44:18;;;;;;;42.15;39.35;;;9.90;80.80;;;;;;12091667;29;20033;-74
2024/01/30 13:50:25;;;;;;;40.97;38.25;;;10.00;80.50;;;;;;12093878;29;20099;-74
2024/01/30 13:56:27;;;;;;;30.75;28.65;;;10.10;80.30;;;;;;12093040;29;20029;-74
2024/01/30 14:02:29;;;;;;;34.50;32.03;;;10.20;81.10;;;;;;12093815;29;20032;-74
2024/01/30 14:08:31;;;;;;;16.20;14.60;;;10.30;81.70;;;;;;12124645;29;20037;-74
2024/01/30 14:14:37;;;;;;;14.77;12.40;;;10.40;80.90;;;;;;12091862;29;20044;-74
2024/01/30 14:20:43;;;;;;;26.48;23.63;;;10.40;81.10;;;;;;12108333;29;20028;-74
2024/01/30 14:26:46;;;;;;;21.23;18.38;;;10.40;80.90;;;;;;12123823;29;20451;-74
2024/01/30 14:33:00;;;;;;;19.63;14.35;;;10.50;81.20;;;;;;12121719;29;20037;-74
2024/01/30 14:39:04;;;;;;;14.40;11.52;;;10.80;81.20;;;;;;12123847;29;20517;-74
2024/01/30 14:45:06;;;;;;;16.77;15.02;;;11.00;81.00;;;;;;12123463;29;20048;-74
2024/01/30 14:51:09;;;;;;;19.83;16.25;;;10.70;81.80;;;;;;12106450;29;20486;-74
2024/01/30 14:57:11;;;;;;;20.60;15.85;;;10.90;82.10;;;;;;12122057;29;20044;-74
2024/01/30 15:03:12;;;;;;;18.77;16.75;;;11.40;81.10;;;;;;12122476;29;20036;-74
2024/01/30 15:09:15;;;;;;;19.60;17.30;;;11.80;81.10;;;;;;12105588;29;20107;-74
2024/01/30 15:15:17;;;;;;;18.05;16.00;;;12.00;80.60;;;;;;12122005;29;20041;-74
2024/01/30 15:21:22;;;;;;;23.15;16.95;;;12.10;81.00;;;;;;12107546;29;20040;-74
2024/01/30 15:27:25;;;;;;;25.00;19.40;;;12.40;80.80;;;;;;12101393;29;20052;-73
2024/01/30 15:33:28;;;;;;;16.70;13.52;;;12.50;81.40;;;;;;12131893;29;20056;-75
2024/01/30 15:39:30;;;;;;;21.52;17.38;;;12.80;81.40;;;;;;12130963;29;20025;-75
2024/01/30 15:45:32;;;;;;;19.98;17.88;;;12.20;82.10;;;;;;12130849;29;20044;-74
2024/01/30 15:51:34;;;;;;;22.33;18.80;;;11.70;83.50;;;;;;12130517;29;20356;-75
2024/01/30 15:57:36;;;;;;;31.52;26.38;;;11.10;84.70;;;;;;12098706;29;20060;-75
2024/01/30 16:03:39;;;;;;;52.30;48.95;;;10.70;85.20;;;;;;12113448;29;20032;-75
2024/01/30 16:09:53;;;;;;;78.90;73.93;;;10.60;85.40;;;;;;12113198;29;20040;-74
2024/01/30 16:15:55;;;;;;;102.65;97.03;;;10.50;85.20;;;;;;12129786;29;20033;-75
2024/01/30 16:21:59;;;;;;;111.75;105.82;;;10.40;85.20;;;;;;12112808;29;20041;-74
2024/01/30 16:28:00;;;;;;;114.30;108.55;;;10.30;84.90;;;;;;12127883;29;20033;-75
2024/01/30 16:34:03;;;;;;;151.15;143.52;;;10.30;84.70;;;;;;12111691;29;20377;-74
2024/01/30 16:40:05;;;;;;;38.40;34.03;;;10.00;85.00;;;;;;12128422;29;20029;-74
2024/01/30 16:46:06;;;;;;;178.02;169.40;;;10.00;84.70;;;;;;12130387;29;20044;-74
2024/01/30 16:52:08;;;;;;;158.82;150.23;;;9.80;84.50;;;;;;12128008;29;20052;-75
2024/01/30 16:58:11;;;;;;;83.35;78.55;;;9.50;85.10;;;;;;12125697;29;20037;-75
2024/01/30 17:04:16;;;;;;;61.25;56.58;;;9.30;85.20;;;;;;12106723;29;20049;-75
2024/01/30 17:10:19;;;;;;;122.22;115.10;;;9.20;85.80;;;;;;12127104;29;20041;-74
2024/01/30 17:16:20;;;;;;;75.70;69.78;;;9.30;85.40;;;;;;12127070;29;20048;-74
2024/01/30 17:22:22;;;;;;;79.63;74.07;;;9.50;84.70;;;;;;12126944;29;20470;-74
2024/01/30 17:28:23;;;;;;;71.45;66.45;;;9.30;84.50;;;;;;12111013;29;20044;-74
2024/01/30 17:34:26;;;;;;;92.80;86.22;;;9.20;84.60;;;;;;12126418;29;20041;-75
2024/01/30 17:40:27;;;;;;;70.82;65.45;;;9.00;85.10;;;;;;12126256;29;20044;-75
2024/01/30 17:46:29;;;;;;;76.13;70.40;;;9.00;85.00;;;;;;12125868;29;20045;-75
2024/01/30 17:52:49;;;;;;;67.32;62.22;;;9.00;84.40;;;;;;12126107;29;20033;-75
2024/01/30 17:58:51;;;;;;;54.35;49.97;;;8.70;84.90;;;;;;12125238;29;20068;-74
2024/01/30 18:04:52;;;;;;;32.28;29.05;;;8.70;84.80;;;;;;12124684;29;20037;-75
2024/01/30 18:10:54;;;;;;;34.20;28.80;;;8.30;84.80;;;;;;12124976;29;20337;-75
2024/01/30 18:17:28;;;;;;;30.52;25.58;;;8.20;85.10;;;;;;12073286;29;20362;-75
2024/01/30 18:23:30;;;;;;;33.20;25.52;;;8.10;85.10;;;;;;12057835;29;20053;-75
2024/01/30 18:29:32;;;;;;;35.53;31.80;;;7.90;85.40;;;;;;12073561;29;20038;-75
2024/01/30 18:35:33;;;;;;;28.15;22.40;;;7.90;85.20;;;;;;12073301;29;20076;-75
2024/01/30 18:41:43;;;;;;;41.72;34.60;;;7.70;85.30;;;;;;12073013;29;20068;-75
2024/01/30 18:47:45;;;;;;;32.20;24.92;;;7.70;85.70;;;;;;12113004;29;20076;-75
2024/01/30 18:53:47;;;;;;;47.05;40.95;;;7.70;85.10;;;;;;12110565;24;20052;-75
2024/01/30 18:59:49;;;;;;;47.50;38.80;;;7.70;85.50;;;;;;12124204;29;20063;-75
2024/01/30 19:05:51;;;;;;;42.55;37.03;;;7.90;85.10;;;;;;12122346;29;20032;-75
2024/01/30 19:11:53;;;;;;;41.33;35.00;;;8.20;84.70;;;;;;12120811;29;20052;-74
2024/01/30 19:17:55;;;;;;;48.17;42.90;;;8.10;84.10;;;;;;12107195;29;20033;-74
2024/01/30 19:23:59;;;;;;;49.65;37.67;;;7.90;84.30;;;;;;12123716;29;20036;-74
2024/01/30 19:30:00;;;;;;;44.70;33.83;;;8.00;84.10;;;;;;12106943;29;20041;-74
2024/01/30 19:36:02;;;;;;;45.17;35.33;;;8.00;83.80;;;;;;12105668;29;20041;-74
2024/01/30 19:42:05;;;;;;;50.45;41.63;;;8.00;83.60;;;;;;12105643;29;20025;-74
2024/01/30 19:48:08;;;;;;;56.75;42.72;;;7.90;83.30;;;;;;12121868;29;20364;-74
2024/01/30 19:54:14;;;;;;;54.30;45.42;;;7.90;83.00;;;;;;12121897;29;20037;-74
2024/01/30 20:00:18;;;;;;;51.30;43.35;;;7.80;83.00;;;;;;12120883;29;20041;-73
2024/01/30 20:06:20;;;;;;;48.53;39.63;;;7.70;82.80;;;;;;12122503;29;20044;-73
2024/01/30 20:12:22;;;;;;;42.38;34.47;;;7.60;82.80;;;;;;12113067;29;20037;-73
2024/01/30 20:18:31;;;;;;;40.88;33.30;;;7.50;82.50;;;;;;12113093;29;20033;-74
2024/01/30 20:24:33;;;;;;;41.75;37.53;;;7.40;82.70;;;;;;12130239;29;20041;-74
2024/01/30 20:30:35;;;;;;;49.05;41.85;;;7.30;82.60;;;;;;12130155;29;20028;-75
2024/01/30 20:36:36;;;;;;;36.72;31.35;;;7.40;82.40;;;;;;12113159;29;20037;-73
2024/01/30 20:42:38;;;;;;;37.95;32.63;;;7.40;82.20;;;;;;12128289;29;20029;-75
2024/01/30 20:48:43;;;;;;;42.15;36.40;;;7.20;82.10;;;;;;12128316;29;20041;-75
2024/01/30 20:54:45;;;;;;;49.15;43.80;;;7.20;82.00;;;;;;12127775;29;20040;-74
2024/01/30 21:00:47;;;;;;;36.78;31.10;;;7.20;81.90;;;;;;12127660;29;20033;-75
2024/01/30 21:06:48;;;;;;;43.50;39.28;;;7.00;81.70;;;;;;12127442;29;20134;-74
2024/01/30 21:12:50;;;;;;;59.70;54.22;;;6.90;82.20;;;;;;12127115;29;20037;-74
2024/01/30 21:18:52;;;;;;;52.33;46.97;;;6.80;82.20;;;;;;12126436;29;20044;-74
2024/01/30 21:24:54;;;;;;;43.78;35.35;;;6.90;82.00;;;;;;12126583;29;20047;-74
2024/01/30 21:30:56;;;;;;;41.03;35.08;;;7.00;81.80;;;;;;12126414;29;20137;-74
2024/01/30 21:36:57;;;;;;;39.10;34.65;;;7.10;81.50;;;;;;12125854;29;20044;-74
2024/01/30 21:43:26;;;;;;;49.63;45.00;;;7.10;81.30;;;;;;12125815;29;20029;-74
2024/01/30 21:49:28;;;;;;;35.17;31.40;;;7.10;81.00;;;;;;12110131;29;20049;-74
2024/01/30 21:55:30;;;;;;;47.80;42.97;;;7.00;80.90;;;;;;12108627;29;20037;-74
2024/01/30 22:01:48;;;;;;;39.90;36.08;;;7.00;80.80;;;;;;12124987;29;20334;-74
2024/01/30 22:07:50;;;;;;;36.90;33.07;;;6.70;81.10;;;;;;12108143;29;20068;-74
2024/01/30 22:13:52;;;;;;;42.03;37.92;;;6.70;81.10;;;;;;12124493;29;20360;-74
2024/01/30 22:19:55;;;;;;;54.42;49.13;;;6.70;80.90;;;;;;12124294;29;20041;-74
2024/01/30 22:25:58;;;;;;;50.75;46.38;;;6.70;80.70;;;;;;12123986;29;20052;-74
2024/01/30 22:32:02;;;;;;;39.03;35.05;;;6.60;80.60;;;;;;12123064;29;20033;-74
2024/01/30 22:38:07;;;;;;;42.53;38.08;;;6.60;80.50;;;;;;12106832;29;20043;-74
2024/01/30 22:44:08;;;;;;;50.83;46.53;;;6.40;80.60;;;;;;12123294;29;20032;-74
2024/01/30 22:50:10;;;;;;;47.72;43.60;;;6.30;80.70;;;;;;12123287;29;20041;-74
2024/01/30 22:56:12;;;;;;;39.80;36.25;;;6.20;80.80;;;;;;12122907;29;20033;-74
2024/01/30 23:02:14;;;;;;;44.88;40.53;;;6.20;80.70;;;;;;12122826;29;20033;-74
2024/01/30 23:08:16;;;;;;;50.22;46.00;;;6.30;80.60;;;;;;12122370;29;20036;-74
2024/01/30 23:14:18;;;;;;;49.05;44.72;;;6.40;80.60;;;;;;12123327;29;20041;-74
2024/01/30 23:20:19;;;;;;;43.67;39.45;;;6.30;80.40;;;;;;12122736;29;20041;-74
2024/01/30 23:26:21;;;;;;;49.03;44.75;;;6.20;80.30;;;;;;12122705;29;20363;-74
2024/01/30 23:32:23;;;;;;;46.88;42.72;;;6.10;80.50;;;;;;12122471;29;20322;-75
2024/01/30 23:38:24;;;;;;;51.10;46.53;;;6.10;80.60;;;;;;12106279;29;20341;-74
2024/01/30 23:44:26;;;;;;;69.10;63.25;;;6.20;80.60;;;;;;12127950;29;20045;-74
2024/01/30 23:50:28;;;;;;;38.15;34.33;;;6.20;80.50;;;;;;12115366;29;20048;-74
2024/01/30 23:56:29;;;;;;;37.10;33.17;;;6.10;80.30;;;;;;12131162;29;20041;-74
